createdAt,value
2017-05-24T00:00:02.510Z,18.78
2017-05-24T00:01:03.214Z,18.81
2017-05-24T00:02:03.915Z,18.78
2017-05-24T00:03:04.620Z,18.81
2017-05-24T00:04:05.524Z,18.78
2017-05-24T00:05:06.226Z,18.70
2017-05-24T00:06:06.930Z,18.74
2017-05-24T00:07:07.636Z,18.70
2017-05-24T00:08:08.336Z,18.70
2017-05-24T00:09:09.040Z,18.71
2017-05-24T00:10:09.748Z,18.68
2017-05-24T00:11:10.454Z,18.68
2017-05-24T00:12:11.155Z,18.70
2017-05-24T00:13:11.857Z,18.58
2017-05-24T00:14:12.759Z,18.53
2017-05-24T00:15:13.462Z,18.52
2017-05-24T00:16:14.165Z,18.49
2017-05-24T00:17:14.869Z,18.43
2017-05-24T00:18:15.575Z,18.44
2017-05-24T00:19:16.534Z,18.34
2017-05-24T00:20:17.236Z,18.37
2017-05-24T00:21:17.939Z,18.33
2017-05-24T00:22:18.642Z,18.34
2017-05-24T00:23:19.342Z,18.23
2017-05-24T00:24:20.287Z,18.33
2017-05-24T00:25:20.986Z,18.34
2017-05-24T00:26:21.686Z,18.34
2017-05-24T00:27:22.387Z,18.26
2017-05-24T00:28:23.090Z,18.25
2017-05-24T00:29:24.044Z,18.23
2017-05-24T00:30:24.744Z,18.20
2017-05-24T00:31:25.447Z,18.22
2017-05-24T00:32:26.147Z,18.20
2017-05-24T00:33:26.850Z,18.18
2017-05-24T00:34:27.802Z,18.22
2017-05-24T00:35:28.511Z,18.18
2017-05-24T00:36:29.215Z,18.26
2017-05-24T00:37:29.919Z,18.25
2017-05-24T00:38:30.619Z,18.22
2017-05-24T00:39:31.530Z,18.18
2017-05-24T00:40:32.232Z,18.23
2017-05-24T00:41:32.934Z,18.22
2017-05-24T00:42:33.637Z,18.11
2017-05-24T00:43:34.337Z,18.23
2017-05-24T00:44:35.239Z,18.05
2017-05-24T00:45:35.939Z,18.05
2017-05-24T00:46:36.639Z,18.03
2017-05-24T00:47:37.345Z,18.08
2017-05-24T00:48:38.047Z,18.10
2017-05-24T00:49:39.001Z,18.10
2017-05-24T00:50:39.702Z,18.07
2017-05-24T00:51:40.404Z,18.11
2017-05-24T00:52:41.108Z,18.05
2017-05-24T00:53:41.817Z,17.98
2017-05-24T00:54:42.718Z,18.13
2017-05-24T00:55:43.423Z,18.00
2017-05-24T00:56:44.127Z,18.08
2017-05-24T00:57:44.834Z,18.01
2017-05-24T00:58:45.535Z,18.05
2017-05-24T00:59:46.488Z,18.00
2017-05-24T01:00:47.188Z,18.05
2017-05-24T01:01:47.942Z,18.08
2017-05-24T01:02:48.653Z,17.90
2017-05-24T01:03:49.355Z,18.03
2017-05-24T01:04:50.272Z,18.00
2017-05-24T01:05:50.978Z,18.07
2017-05-24T01:06:51.680Z,17.98
2017-05-24T01:07:52.381Z,17.97
2017-05-24T01:08:53.087Z,17.97
2017-05-24T01:09:53.993Z,17.92
2017-05-24T01:10:54.698Z,17.94
2017-05-24T01:11:55.407Z,17.95
2017-05-24T01:12:56.112Z,17.90
2017-05-24T01:13:56.816Z,17.85
2017-05-24T01:14:57.768Z,17.92
2017-05-24T01:15:58.476Z,17.90
2017-05-24T01:16:59.178Z,17.76
2017-05-24T01:17:59.882Z,17.79
2017-05-24T01:19:00.582Z,17.85
2017-05-24T01:20:01.533Z,17.74
2017-05-24T01:21:02.235Z,17.80
2017-05-24T01:22:02.937Z,17.78
2017-05-24T01:23:03.643Z,17.82
2017-05-24T01:24:04.345Z,17.78
2017-05-24T01:25:05.244Z,17.85
2017-05-24T01:26:05.949Z,17.76
2017-05-24T01:27:06.652Z,17.82
2017-05-24T01:28:07.355Z,17.76
2017-05-24T01:29:08.061Z,17.85
2017-05-24T01:30:08.963Z,17.80
2017-05-24T01:31:09.663Z,17.78
2017-05-24T01:32:10.364Z,17.83
2017-05-24T01:33:11.066Z,17.80
2017-05-24T01:34:11.764Z,17.76
2017-05-24T01:35:12.668Z,17.79
2017-05-24T01:36:13.377Z,17.85
2017-05-24T01:37:14.078Z,17.83
2017-05-24T01:38:14.778Z,17.80
2017-05-24T01:39:15.478Z,17.82
2017-05-24T01:40:16.430Z,17.82
2017-05-24T01:41:17.133Z,17.79
2017-05-24T01:42:17.834Z,17.79
2017-05-24T01:43:18.537Z,17.74
2017-05-24T01:44:19.239Z,17.80
2017-05-24T01:45:20.199Z,17.83
2017-05-24T01:46:20.900Z,17.86
2017-05-24T01:47:21.602Z,17.82
2017-05-24T01:48:22.309Z,17.80
2017-05-24T01:49:23.013Z,17.78
2017-05-24T01:50:23.914Z,17.79
2017-05-24T01:51:24.616Z,17.79
2017-05-24T01:52:25.317Z,17.79
2017-05-24T01:53:26.021Z,17.78
2017-05-24T01:54:26.725Z,17.80
2017-05-24T01:55:27.677Z,17.82
2017-05-24T01:56:28.379Z,17.82
2017-05-24T01:57:29.081Z,17.76
2017-05-24T01:58:29.784Z,17.76
2017-05-24T01:59:30.486Z,17.65
2017-05-24T02:00:31.387Z,17.67
2017-05-24T02:01:32.090Z,17.68
2017-05-24T02:02:32.792Z,17.67
2017-05-24T02:03:33.493Z,17.68
2017-05-24T02:04:34.197Z,17.74
2017-05-24T02:05:35.103Z,17.68
2017-05-24T02:06:35.804Z,17.64
2017-05-24T02:07:36.504Z,17.68
2017-05-24T02:08:37.206Z,17.56
2017-05-24T02:09:37.904Z,17.51
2017-05-24T02:10:38.856Z,17.59
2017-05-24T02:11:39.557Z,17.59
2017-05-24T02:12:40.262Z,17.60
2017-05-24T02:13:40.968Z,17.57
2017-05-24T02:14:41.673Z,17.57
2017-05-24T02:15:42.624Z,17.49
2017-05-24T02:16:43.328Z,17.45
2017-05-24T02:17:44.030Z,17.46
2017-05-24T02:18:44.733Z,17.46
2017-05-24T02:19:45.432Z,17.39
2017-05-24T02:20:46.333Z,17.38
2017-05-24T02:21:47.038Z,17.36
2017-05-24T02:22:47.737Z,17.34
2017-05-24T02:23:48.440Z,17.26
2017-05-24T02:24:49.142Z,17.33
2017-05-24T02:25:50.043Z,17.23
2017-05-24T02:26:50.743Z,17.24
2017-05-24T02:27:51.444Z,17.23
2017-05-24T02:28:52.148Z,17.23
2017-05-24T02:29:52.851Z,17.11
2017-05-24T02:30:53.755Z,17.16
2017-05-24T02:31:54.454Z,17.15
2017-05-24T02:32:55.156Z,17.12
2017-05-24T02:33:55.857Z,17.04
2017-05-24T02:34:56.566Z,17.02
2017-05-24T02:35:57.265Z,17.11
2017-05-24T02:36:57.964Z,17.02
2017-05-24T02:37:58.666Z,16.96
2017-05-24T02:38:59.367Z,17.01
2017-05-24T02:40:00.069Z,16.97
2017-05-24T02:41:00.972Z,16.93
2017-05-24T02:42:01.674Z,16.93
2017-05-24T02:43:02.374Z,16.93
2017-05-24T02:44:03.075Z,16.97
2017-05-24T02:45:03.825Z,16.87
2017-05-24T02:46:04.781Z,16.89
2017-05-24T02:47:05.481Z,16.86
2017-05-24T02:48:06.183Z,16.79
2017-05-24T02:49:06.890Z,16.90
2017-05-24T02:50:07.598Z,16.79
2017-05-24T02:51:08.548Z,16.76
2017-05-24T02:52:09.253Z,16.71
2017-05-24T02:53:09.955Z,16.71
2017-05-24T02:54:10.659Z,16.78
2017-05-24T02:55:11.362Z,16.69
2017-05-24T02:56:12.323Z,16.65
2017-05-24T02:57:13.026Z,16.72
2017-05-24T02:58:13.723Z,16.68
2017-05-24T02:59:14.425Z,16.68
2017-05-24T03:00:15.128Z,16.57
2017-05-24T03:01:16.028Z,16.60
2017-05-24T03:02:16.731Z,16.64
2017-05-24T03:03:17.432Z,16.56
2017-05-24T03:04:18.135Z,16.54
2017-05-24T03:05:18.834Z,16.61
2017-05-24T03:06:19.739Z,16.54
2017-05-24T03:07:20.439Z,16.47
2017-05-24T03:08:21.143Z,16.49
2017-05-24T03:09:21.842Z,16.51
2017-05-24T03:10:22.546Z,16.42
2017-05-24T03:11:23.495Z,16.39
2017-05-24T03:12:24.199Z,16.41
2017-05-24T03:13:24.904Z,16.35
2017-05-24T03:14:25.604Z,16.35
2017-05-24T03:15:26.307Z,16.35
2017-05-24T03:16:27.208Z,16.33
2017-05-24T03:17:27.908Z,16.43
2017-05-24T03:18:28.613Z,16.38
2017-05-24T03:19:29.315Z,16.36
2017-05-24T03:20:30.013Z,16.41
2017-05-24T03:21:30.966Z,16.41
2017-05-24T03:22:31.666Z,16.38
2017-05-24T03:23:32.368Z,16.47
2017-05-24T03:24:33.074Z,16.35
2017-05-24T03:25:33.776Z,16.33
2017-05-24T03:26:34.734Z,16.35
2017-05-24T03:27:35.437Z,16.35
2017-05-24T03:28:36.141Z,16.41
2017-05-24T03:29:36.850Z,16.33
2017-05-24T03:30:37.552Z,16.35
2017-05-24T03:31:38.455Z,16.38
2017-05-24T03:32:39.154Z,16.36
2017-05-24T03:33:39.862Z,16.31
2017-05-24T03:34:40.564Z,16.16
2017-05-24T03:35:41.270Z,16.23
2017-05-24T03:36:42.222Z,16.23
2017-05-24T03:37:42.925Z,16.23
2017-05-24T03:38:43.628Z,16.32
2017-05-24T03:39:44.328Z,16.21
2017-05-24T03:40:45.031Z,16.31
2017-05-24T03:41:45.932Z,16.36
2017-05-24T03:42:46.633Z,16.26
2017-05-24T03:43:47.348Z,16.26
2017-05-24T03:44:48.047Z,16.23
2017-05-24T03:45:48.745Z,16.24
2017-05-24T03:46:49.652Z,16.21
2017-05-24T03:47:50.362Z,16.15
2017-05-24T03:48:51.065Z,16.08
2017-05-24T03:49:51.768Z,16.08
2017-05-24T03:50:52.468Z,16.08
2017-05-24T03:51:53.373Z,16.10
2017-05-24T03:52:54.075Z,16.04
2017-05-24T03:53:54.778Z,16.13
2017-05-24T03:54:55.482Z,16.15
2017-05-24T03:55:56.185Z,16.04
2017-05-24T03:56:57.091Z,16.01
2017-05-24T03:57:57.794Z,16.15
2017-05-24T03:58:58.501Z,16.09
2017-05-24T03:59:59.210Z,16.16
2017-05-24T04:00:59.911Z,16.20
2017-05-24T04:02:00.867Z,16.26
2017-05-24T04:03:01.573Z,16.26
2017-05-24T04:04:02.277Z,16.21
2017-05-24T04:05:02.985Z,16.28
2017-05-24T04:06:03.690Z,16.20
2017-05-24T04:07:04.703Z,16.15
2017-05-24T04:08:05.411Z,16.13
2017-05-24T04:09:06.115Z,16.20
2017-05-24T04:10:06.832Z,16.13
2017-05-24T04:11:07.533Z,16.08
2017-05-24T04:12:08.440Z,16.16
2017-05-24T04:13:09.145Z,16.01
2017-05-24T04:14:09.848Z,16.04
2017-05-24T04:15:10.559Z,16.15
2017-05-24T04:16:11.260Z,16.09
2017-05-24T04:17:12.168Z,16.05
2017-05-24T04:18:12.874Z,16.10
2017-05-24T04:19:13.577Z,16.16
2017-05-24T04:20:14.279Z,16.15
2017-05-24T04:21:14.986Z,16.26
2017-05-24T04:22:15.950Z,16.24
2017-05-24T04:23:16.652Z,16.28
2017-05-24T04:24:17.355Z,16.21
2017-05-24T04:25:18.055Z,16.29
2017-05-24T04:26:18.757Z,16.15
2017-05-24T04:27:19.760Z,16.12
2017-05-24T04:28:20.462Z,16.15
2017-05-24T04:29:21.164Z,16.12
2017-05-24T04:30:21.872Z,16.15
2017-05-24T04:31:22.577Z,16.16
2017-05-24T04:32:23.531Z,16.21
2017-05-24T04:33:24.231Z,16.16
2017-05-24T04:34:24.933Z,16.05
2017-05-24T04:35:25.642Z,16.13
2017-05-24T04:36:26.345Z,16.13
2017-05-24T04:37:27.298Z,16.01
2017-05-24T04:38:27.998Z,16.01
2017-05-24T04:39:28.701Z,16.09
2017-05-24T04:40:29.406Z,16.05
2017-05-24T04:41:30.115Z,16.09
2017-05-24T04:42:31.014Z,16.08
2017-05-24T04:43:31.719Z,16.04
2017-05-24T04:44:32.424Z,16.02
2017-05-24T04:45:33.126Z,15.92
2017-05-24T04:46:33.834Z,15.83
2017-05-24T04:47:34.788Z,15.91
2017-05-24T04:48:35.492Z,15.92
2017-05-24T04:49:36.193Z,15.91
2017-05-24T04:50:36.895Z,15.92
2017-05-24T04:51:37.597Z,15.94
2017-05-24T04:52:38.499Z,15.95
2017-05-24T04:53:39.201Z,16.02
2017-05-24T04:54:39.902Z,15.86
2017-05-24T04:55:40.611Z,15.97
2017-05-24T04:56:41.313Z,15.86
2017-05-24T04:57:42.317Z,15.98
2017-05-24T04:58:43.031Z,15.91
2017-05-24T04:59:43.737Z,15.92
2017-05-24T05:00:44.444Z,15.84
2017-05-24T05:01:45.144Z,15.84
2017-05-24T05:02:45.847Z,15.82
2017-05-24T05:03:46.549Z,15.92
2017-05-24T05:04:47.249Z,15.86
2017-05-24T05:05:47.953Z,15.98
2017-05-24T05:06:48.654Z,15.90
2017-05-24T05:07:49.564Z,16.01
2017-05-24T05:08:50.268Z,15.88
2017-05-24T05:09:50.971Z,16.04
2017-05-24T05:10:51.673Z,15.97
2017-05-24T05:11:52.373Z,16.04
2017-05-24T05:12:53.276Z,16.01
2017-05-24T05:13:53.984Z,16.02
2017-05-24T05:14:54.684Z,15.86
2017-05-24T05:15:55.388Z,15.92
2017-05-24T05:16:56.091Z,15.91
2017-05-24T05:17:56.995Z,16.00
2017-05-24T05:18:57.704Z,15.98
2017-05-24T05:19:58.418Z,15.83
2017-05-24T05:20:59.129Z,15.88
2017-05-24T05:21:59.832Z,15.92
2017-05-24T05:23:00.785Z,15.84
2017-05-24T05:24:01.491Z,15.80
2017-05-24T05:25:02.192Z,15.73
2017-05-24T05:26:02.897Z,15.68
2017-05-24T05:27:03.603Z,15.65
2017-05-24T05:28:04.555Z,15.67
2017-05-24T05:29:05.259Z,15.76
2017-05-24T05:30:05.965Z,15.72
2017-05-24T05:31:06.670Z,15.70
2017-05-24T05:32:07.371Z,15.80
2017-05-24T05:33:08.328Z,15.70
2017-05-24T05:34:09.032Z,15.64
2017-05-24T05:35:09.734Z,15.54
2017-05-24T05:36:10.436Z,15.75
2017-05-24T05:37:11.138Z,15.73
2017-05-24T05:38:12.098Z,15.65
2017-05-24T05:39:12.802Z,15.64
2017-05-24T05:40:13.506Z,15.70
2017-05-24T05:41:14.210Z,15.80
2017-05-24T05:42:14.914Z,15.76
2017-05-24T05:43:15.822Z,15.72
2017-05-24T05:44:16.528Z,15.80
2017-05-24T05:45:17.235Z,15.77
2017-05-24T05:46:17.942Z,15.57
2017-05-24T05:47:18.644Z,15.67
2017-05-24T05:48:19.553Z,15.49
2017-05-24T05:49:20.256Z,15.55
2017-05-24T05:50:20.959Z,15.46
2017-05-24T05:51:21.661Z,15.51
2017-05-24T05:52:22.362Z,15.47
2017-05-24T05:53:23.264Z,15.49
2017-05-24T05:54:23.967Z,15.57
2017-05-24T05:55:24.680Z,15.57
2017-05-24T05:56:25.389Z,15.58
2017-05-24T05:57:26.092Z,15.72
2017-05-24T05:58:27.045Z,15.77
2017-05-24T05:59:27.751Z,15.62
2017-05-24T06:00:28.456Z,15.67
2017-05-24T06:01:29.161Z,15.75
2017-05-24T06:02:29.866Z,15.73
2017-05-24T06:03:30.774Z,15.73
2017-05-24T06:04:31.477Z,15.73
2017-05-24T06:05:32.181Z,15.76
2017-05-24T06:06:32.883Z,15.67
2017-05-24T06:07:33.586Z,15.72
2017-05-24T06:08:34.541Z,15.72
2017-05-24T06:09:35.245Z,15.77
2017-05-24T06:10:35.951Z,15.67
2017-05-24T06:11:36.659Z,15.68
2017-05-24T06:12:37.360Z,15.65
2017-05-24T06:13:38.268Z,15.72
2017-05-24T06:14:38.973Z,15.73
2017-05-24T06:15:39.683Z,15.72
2017-05-24T06:16:40.388Z,15.84
2017-05-24T06:17:41.094Z,15.80
2017-05-24T06:18:42.052Z,15.70
2017-05-24T06:19:42.757Z,15.75
2017-05-24T06:20:43.463Z,15.80
2017-05-24T06:21:44.168Z,15.70
2017-05-24T06:22:44.875Z,15.58
2017-05-24T06:23:45.833Z,15.55
2017-05-24T06:24:46.543Z,15.43
2017-05-24T06:25:47.247Z,15.36
2017-05-24T06:26:47.948Z,15.35
2017-05-24T06:27:48.649Z,15.43
2017-05-24T06:28:49.608Z,15.33
2017-05-24T06:29:50.311Z,15.35
2017-05-24T06:30:51.017Z,15.37
2017-05-24T06:31:51.720Z,15.37
2017-05-24T06:32:52.431Z,15.28
2017-05-24T06:33:53.385Z,15.39
2017-05-24T06:34:54.090Z,15.40
2017-05-24T06:35:54.793Z,15.43
2017-05-24T06:36:55.496Z,15.33
2017-05-24T06:37:56.201Z,15.46
2017-05-24T06:38:57.159Z,15.51
2017-05-24T06:39:57.864Z,15.59
2017-05-24T06:40:58.568Z,15.59
2017-05-24T06:41:59.267Z,15.55
2017-05-24T06:42:59.970Z,15.68
2017-05-24T06:44:00.926Z,15.72
2017-05-24T06:45:01.628Z,15.70
2017-05-24T06:46:02.331Z,15.59
2017-05-24T06:47:03.038Z,15.75
2017-05-24T06:48:03.745Z,15.88
2017-05-24T06:49:04.648Z,15.91
2017-05-24T06:50:05.354Z,15.98
2017-05-24T06:51:06.055Z,16.09
2017-05-24T06:52:06.758Z,16.09
2017-05-24T06:53:07.468Z,16.16
2017-05-24T06:54:08.429Z,16.17
2017-05-24T06:55:09.133Z,16.10
2017-05-24T06:56:09.772Z,16.08
2017-05-24T06:57:10.536Z,16.13
2017-05-24T06:58:11.248Z,16.23
2017-05-24T06:59:12.205Z,16.21
2017-05-24T07:00:12.910Z,16.28
2017-05-24T07:01:13.613Z,16.15
2017-05-24T07:02:14.316Z,16.21
2017-05-24T07:03:15.030Z,16.15
2017-05-24T07:04:15.940Z,16.29
2017-05-24T07:05:16.646Z,16.26
2017-05-24T07:06:17.350Z,16.28
2017-05-24T07:07:18.053Z,16.31
2017-05-24T07:08:18.753Z,16.24
2017-05-24T07:09:19.656Z,16.24
2017-05-24T07:10:20.360Z,16.24
2017-05-24T07:11:21.031Z,16.23
2017-05-24T07:12:21.754Z,16.13
2017-05-24T07:13:22.471Z,16.17
2017-05-24T07:14:23.425Z,16.01
2017-05-24T07:15:24.130Z,15.80
2017-05-24T07:16:24.836Z,15.76
2017-05-24T07:17:25.539Z,15.75
2017-05-24T07:18:26.242Z,15.82
2017-05-24T07:19:27.152Z,15.83
2017-05-24T07:20:27.867Z,15.75
2017-05-24T07:21:28.570Z,15.73
2017-05-24T07:22:29.272Z,15.80
2017-05-24T07:23:29.975Z,15.76
2017-05-24T07:24:30.881Z,15.76
2017-05-24T07:25:31.594Z,15.67
2017-05-24T07:26:32.306Z,15.67
2017-05-24T07:27:33.008Z,15.86
2017-05-24T07:28:33.724Z,15.80
2017-05-24T07:29:34.633Z,15.83
2017-05-24T07:30:35.337Z,15.84
2017-05-24T07:31:36.043Z,15.91
2017-05-24T07:32:36.745Z,16.04
2017-05-24T07:33:37.453Z,16.05
2017-05-24T07:34:38.160Z,16.04
2017-05-24T07:35:38.865Z,16.23
2017-05-24T07:36:39.569Z,16.26
2017-05-24T07:37:40.275Z,16.17
2017-05-24T07:38:40.982Z,16.32
2017-05-24T07:39:41.938Z,16.38
2017-05-24T07:40:42.640Z,16.56
2017-05-24T07:41:43.346Z,16.65
2017-05-24T07:42:44.057Z,16.53
2017-05-24T07:43:44.761Z,16.43
2017-05-24T07:44:45.720Z,16.47
2017-05-24T07:45:46.423Z,16.47
2017-05-24T07:46:47.133Z,16.42
2017-05-24T07:47:47.847Z,16.51
2017-05-24T07:48:48.551Z,16.43
2017-05-24T07:49:49.453Z,16.54
2017-05-24T07:50:50.165Z,16.53
2017-05-24T07:51:50.872Z,16.65
2017-05-24T07:52:51.575Z,16.74
2017-05-24T07:53:52.282Z,16.72
2017-05-24T07:54:53.245Z,16.72
2017-05-24T07:55:53.959Z,16.61
2017-05-24T07:56:54.669Z,16.76
2017-05-24T07:57:55.378Z,16.71
2017-05-24T07:58:56.090Z,16.76
2017-05-24T07:59:57.047Z,16.94
2017-05-24T08:00:57.751Z,16.93
2017-05-24T08:01:58.455Z,16.91
2017-05-24T08:02:59.158Z,16.91
2017-05-24T08:03:59.863Z,16.96
2017-05-24T08:05:00.768Z,16.84
2017-05-24T08:06:01.473Z,17.01
2017-05-24T08:07:02.175Z,16.97
2017-05-24T08:08:02.880Z,17.09
2017-05-24T08:09:03.585Z,17.04
2017-05-24T08:10:04.552Z,17.05
2017-05-24T08:11:05.256Z,17.04
2017-05-24T08:12:05.964Z,17.02
2017-05-24T08:13:06.669Z,17.05
2017-05-24T08:14:07.377Z,17.05
2017-05-24T08:15:08.333Z,16.89
2017-05-24T08:16:09.039Z,16.66
2017-05-24T08:17:09.746Z,16.86
2017-05-24T08:18:10.451Z,16.93
2017-05-24T08:19:11.155Z,16.89
2017-05-24T08:20:12.062Z,16.89
2017-05-24T08:21:12.767Z,16.96
2017-05-24T08:22:13.475Z,17.06
2017-05-24T08:23:14.180Z,17.04
2017-05-24T08:24:14.883Z,17.04
2017-05-24T08:25:15.786Z,17.06
2017-05-24T08:26:16.488Z,17.09
2017-05-24T08:27:17.206Z,17.23
2017-05-24T08:28:17.914Z,17.24
2017-05-24T08:29:18.620Z,17.41
2017-05-24T08:30:19.576Z,17.44
2017-05-24T08:31:20.282Z,17.60
2017-05-24T08:32:20.988Z,17.54
2017-05-24T08:33:21.692Z,17.42
2017-05-24T08:34:22.398Z,17.49
2017-05-24T08:35:23.300Z,17.48
2017-05-24T08:36:24.022Z,17.52
2017-05-24T08:37:24.726Z,17.70
2017-05-24T08:38:25.430Z,17.82
2017-05-24T08:39:26.135Z,17.74
2017-05-24T08:40:27.090Z,17.86
2017-05-24T08:41:27.795Z,17.95
2017-05-24T08:42:28.499Z,17.94
2017-05-24T08:43:29.200Z,17.97
2017-05-24T08:44:29.901Z,17.90
2017-05-24T08:45:30.810Z,17.97
2017-05-24T08:46:31.529Z,17.94
2017-05-24T08:47:32.238Z,18.01
2017-05-24T08:48:32.945Z,17.79
2017-05-24T08:49:33.656Z,17.94
2017-05-24T08:50:34.624Z,17.98
2017-05-24T08:51:35.329Z,18.13
2017-05-24T08:52:36.035Z,18.23
2017-05-24T08:53:36.744Z,18.43
2017-05-24T08:54:37.450Z,18.55
2017-05-24T08:55:38.402Z,18.56
2017-05-24T08:56:39.112Z,18.55
2017-05-24T08:57:39.817Z,18.71
2017-05-24T08:58:40.524Z,18.49
2017-05-24T08:59:41.230Z,18.58
2017-05-24T09:00:42.183Z,18.71
2017-05-24T09:01:42.900Z,18.63
2017-05-24T09:02:43.614Z,18.74
2017-05-24T09:03:44.326Z,18.81
2017-05-24T09:04:45.031Z,18.62
2017-05-24T09:05:45.938Z,18.62
2017-05-24T09:06:46.641Z,18.71
2017-05-24T09:07:47.344Z,18.89
2017-05-24T09:08:48.099Z,18.88
2017-05-24T09:09:48.809Z,19.07
2017-05-24T09:10:49.768Z,19.19
2017-05-24T09:11:50.473Z,19.44
2017-05-24T09:12:51.181Z,19.36
2017-05-24T09:13:51.891Z,19.15
2017-05-24T09:14:52.599Z,19.40
2017-05-24T09:15:53.555Z,19.34
2017-05-24T09:16:54.266Z,19.15
2017-05-24T09:17:54.972Z,19.22
2017-05-24T09:18:55.680Z,19.21
2017-05-24T09:19:56.388Z,19.00
2017-05-24T09:20:57.295Z,18.99
2017-05-24T09:21:58.006Z,18.86
2017-05-24T09:22:58.711Z,18.96
2017-05-24T09:23:59.416Z,19.00
2017-05-24T09:25:00.129Z,19.12
2017-05-24T09:26:01.084Z,19.37
2017-05-24T09:27:01.791Z,19.41
2017-05-24T09:28:02.499Z,19.12
2017-05-24T09:29:03.203Z,19.36
2017-05-24T09:30:03.911Z,19.11
2017-05-24T09:31:04.867Z,19.27
2017-05-24T09:32:05.573Z,19.07
2017-05-24T09:33:06.281Z,19.21
2017-05-24T09:34:06.988Z,19.39
2017-05-24T09:35:07.694Z,19.54
2017-05-24T09:36:08.605Z,19.34
2017-05-24T09:37:09.309Z,19.55
2017-05-24T09:38:10.018Z,19.58
2017-05-24T09:39:10.738Z,19.73
2017-05-24T09:40:11.445Z,19.84
2017-05-24T09:41:12.404Z,19.96
2017-05-24T09:42:13.115Z,20.26
2017-05-24T09:43:13.819Z,20.36
2017-05-24T09:44:14.588Z,20.16
2017-05-24T09:45:15.297Z,20.04
2017-05-24T09:46:16.255Z,20.19
2017-05-24T09:47:16.963Z,20.16
2017-05-24T09:48:17.675Z,19.77
2017-05-24T09:49:18.386Z,19.95
2017-05-24T09:50:19.097Z,19.66
2017-05-24T09:51:20.055Z,19.89
2017-05-24T09:52:20.764Z,19.88
2017-05-24T09:53:21.474Z,19.73
2017-05-24T09:54:22.181Z,19.89
2017-05-24T09:55:22.890Z,19.84
2017-05-24T09:56:23.848Z,19.89
2017-05-24T09:57:24.554Z,19.85
2017-05-24T09:58:25.261Z,19.92
2017-05-24T09:59:25.970Z,20.21
2017-05-24T10:00:26.681Z,20.36
2017-05-24T10:01:27.388Z,20.24
2017-05-24T10:02:28.099Z,20.25
2017-05-24T10:03:28.812Z,20.22
2017-05-24T10:04:29.521Z,20.56
2017-05-24T10:05:30.225Z,20.62
2017-05-24T10:06:31.133Z,20.39
2017-05-24T10:07:31.841Z,20.14
2017-05-24T10:08:32.548Z,20.13
2017-05-24T10:09:33.254Z,20.25
2017-05-24T10:10:33.964Z,20.22
2017-05-24T10:11:34.921Z,20.36
2017-05-24T10:12:35.629Z,20.62
2017-05-24T10:13:36.336Z,20.60
2017-05-24T10:14:37.041Z,20.62
2017-05-24T10:15:37.747Z,20.75
2017-05-24T10:16:38.705Z,20.75
2017-05-24T10:17:39.410Z,20.88
2017-05-24T10:18:40.115Z,20.87
2017-05-24T10:19:40.833Z,20.81
2017-05-24T10:20:41.543Z,20.75
2017-05-24T10:21:42.505Z,20.75
2017-05-24T10:22:43.212Z,20.99
2017-05-24T10:23:43.921Z,20.84
2017-05-24T10:24:44.626Z,20.60
2017-05-24T10:25:45.332Z,20.51
2017-05-24T10:26:46.239Z,20.21
2017-05-24T10:27:46.944Z,20.47
2017-05-24T10:28:47.650Z,20.58
2017-05-24T10:29:48.366Z,20.59
2017-05-24T10:30:49.070Z,20.84
2017-05-24T10:31:50.028Z,20.75
2017-05-24T10:32:50.734Z,20.69
2017-05-24T10:33:51.449Z,20.74
2017-05-24T10:34:52.159Z,20.62
2017-05-24T10:35:52.871Z,20.48
2017-05-24T10:36:53.782Z,20.52
2017-05-24T10:37:54.488Z,20.25
2017-05-24T10:38:55.199Z,20.39
2017-05-24T10:39:55.910Z,20.55
2017-05-24T10:40:56.620Z,20.56
2017-05-24T10:41:57.575Z,20.39
2017-05-24T10:42:58.285Z,20.11
2017-05-24T10:43:58.990Z,20.28
2017-05-24T10:44:59.697Z,20.26
2017-05-24T10:46:00.410Z,20.25
2017-05-24T10:47:01.314Z,20.24
2017-05-24T10:48:02.027Z,20.03
2017-05-24T10:49:02.735Z,20.06
2017-05-24T10:50:03.445Z,20.13
2017-05-24T10:51:04.155Z,20.06
2017-05-24T10:52:05.111Z,20.25
2017-05-24T10:53:05.814Z,20.47
2017-05-24T10:54:06.525Z,20.55
2017-05-24T10:55:07.232Z,20.62
2017-05-24T10:56:07.936Z,20.60
2017-05-24T10:57:08.892Z,20.75
2017-05-24T10:58:09.595Z,21.02
2017-05-24T10:59:10.310Z,21.12
2017-05-24T11:00:11.020Z,21.21
2017-05-24T11:01:11.728Z,21.17
2017-05-24T11:02:12.639Z,21.18
2017-05-24T11:03:13.345Z,21.32
2017-05-24T11:04:14.053Z,21.32
2017-05-24T11:05:14.765Z,21.00
2017-05-24T11:06:15.475Z,21.15
2017-05-24T11:07:16.433Z,21.02
2017-05-24T11:08:17.141Z,20.88
2017-05-24T11:09:17.853Z,20.90
2017-05-24T11:10:18.567Z,21.22
2017-05-24T11:11:19.275Z,21.29
2017-05-24T11:12:20.233Z,21.12
2017-05-24T11:13:20.940Z,21.17
2017-05-24T11:14:21.646Z,21.02
2017-05-24T11:15:22.353Z,21.09
2017-05-24T11:16:23.061Z,21.12
2017-05-24T11:17:24.016Z,21.12
2017-05-24T11:18:24.722Z,21.32
2017-05-24T11:19:25.429Z,21.40
2017-05-24T11:20:26.138Z,21.55
2017-05-24T11:21:26.857Z,21.62
2017-05-24T11:22:27.814Z,21.77
2017-05-24T11:23:28.519Z,22.06
2017-05-24T11:24:29.226Z,21.96
2017-05-24T11:25:29.931Z,21.98
2017-05-24T11:26:30.642Z,21.82
2017-05-24T11:27:31.599Z,21.69
2017-05-24T11:28:32.307Z,21.93
2017-05-24T11:29:33.016Z,21.73
2017-05-24T11:30:33.727Z,22.10
2017-05-24T11:31:34.441Z,22.33
2017-05-24T11:32:35.399Z,22.54
2017-05-24T11:33:36.112Z,22.38
2017-05-24T11:34:36.823Z,22.23
2017-05-24T11:35:37.532Z,22.28
2017-05-24T11:36:38.242Z,22.66
2017-05-24T11:37:39.199Z,21.76
2017-05-24T11:38:39.909Z,21.35
2017-05-24T11:39:40.622Z,21.50
2017-05-24T11:40:41.330Z,21.87
2017-05-24T11:41:42.041Z,21.89
2017-05-24T11:42:43.004Z,22.14
2017-05-24T11:43:43.716Z,22.11
2017-05-24T11:44:44.427Z,22.45
2017-05-24T11:45:45.140Z,22.91
2017-05-24T11:46:45.846Z,22.96
2017-05-24T11:47:46.803Z,23.08
2017-05-24T11:48:47.516Z,22.98
2017-05-24T11:49:48.227Z,23.06
2017-05-24T11:50:48.936Z,23.03
2017-05-24T11:51:49.649Z,22.99
2017-05-24T11:52:50.610Z,23.12
2017-05-24T11:53:51.331Z,22.90
2017-05-24T11:54:52.039Z,22.55
2017-05-24T11:55:52.748Z,22.83
2017-05-24T11:56:53.463Z,22.66
2017-05-24T11:57:54.424Z,22.70
2017-05-24T11:58:55.135Z,22.55
2017-05-24T11:59:55.843Z,22.54
2017-05-24T12:00:56.551Z,22.51
2017-05-24T12:01:57.256Z,22.76
2017-05-24T12:02:58.215Z,23.00
2017-05-24T12:03:58.930Z,23.31
2017-05-24T12:04:59.653Z,23.15
2017-05-24T12:06:00.365Z,22.98
2017-05-24T12:07:01.078Z,23.03
2017-05-24T12:08:02.038Z,22.72
2017-05-24T12:09:02.746Z,22.51
2017-05-24T12:10:03.455Z,22.41
2017-05-24T12:11:04.164Z,22.50
2017-05-24T12:12:04.884Z,22.39
2017-05-24T12:13:05.840Z,22.43
2017-05-24T12:14:06.551Z,22.35
2017-05-24T12:15:07.264Z,22.57
2017-05-24T12:16:07.968Z,22.51
2017-05-24T12:17:08.673Z,22.48
2017-05-24T12:18:09.581Z,22.35
2017-05-24T12:19:10.292Z,22.41
2017-05-24T12:20:11.004Z,22.33
2017-05-24T12:21:11.712Z,22.25
2017-05-24T12:22:12.432Z,22.15
2017-05-24T12:23:13.346Z,22.28
2017-05-24T12:24:14.063Z,22.41
2017-05-24T12:25:14.780Z,22.33
2017-05-24T12:26:15.490Z,21.99
2017-05-24T12:27:16.198Z,22.06
2017-05-24T12:28:17.159Z,22.15
2017-05-24T12:29:17.874Z,22.38
2017-05-24T12:30:18.579Z,22.44
2017-05-24T12:31:19.284Z,22.60
2017-05-24T12:32:19.993Z,22.36
2017-05-24T12:33:20.949Z,22.43
2017-05-24T12:34:21.658Z,22.43
2017-05-24T12:35:22.368Z,22.66
2017-05-24T12:36:23.080Z,22.57
2017-05-24T12:37:23.785Z,22.57
2017-05-24T12:38:24.495Z,22.75
2017-05-24T12:39:25.206Z,22.68
2017-05-24T12:40:25.919Z,22.78
2017-05-24T12:41:26.631Z,22.75
2017-05-24T12:42:27.341Z,22.88
2017-05-24T12:43:28.308Z,22.78
2017-05-24T12:44:29.018Z,22.55
2017-05-24T12:45:29.725Z,22.48
2017-05-24T12:46:30.438Z,22.51
2017-05-24T12:47:31.147Z,22.75
2017-05-24T12:48:32.056Z,22.81
2017-05-24T12:49:32.769Z,22.70
2017-05-24T12:50:33.477Z,22.76
2017-05-24T12:51:34.190Z,22.63
2017-05-24T12:52:34.900Z,22.33
2017-05-24T12:53:35.866Z,22.68
2017-05-24T12:54:36.576Z,22.57
2017-05-24T12:55:37.295Z,22.69
2017-05-24T12:56:38.003Z,22.69
2017-05-24T12:57:38.709Z,22.57
2017-05-24T12:58:39.619Z,22.36
2017-05-24T12:59:40.341Z,22.20
2017-05-24T13:00:41.099Z,22.11
2017-05-24T13:01:41.810Z,22.00